sensor_id;sensor_type;location;lat;lon;timestamp;P1;durP1;ratioP1;P2;durP2;ratioP2
27539;SDS011;15906;52.046;4.724;2023-01-28T00:02:18;10.87;;;7.53;;
27539;SDS011;15906;52.046;4.724;2023-01-28T00:04:44;11.80;;;8.27;;
27539;SDS011;15906;52.046;4.724;2023-01-28T00:07:09;11.83;;;7.50;;
27539;SDS011;15906;52.046;4.724;2023-01-28T00:09:35;12.63;;;8.13;;
27539;SDS011;15906;52.046;4.724;2023-01-28T00:12:00;12.30;;;7.77;;
27539;SDS011;15906;52.046;4.724;2023-01-28T00:14:26;10.23;;;6.33;;
27539;SDS011;15906;52.046;4.724;2023-01-28T00:16:51;14.83;;;8.03;;
27539;SDS011;15906;52.046;4.724;2023-01-28T00:19:17;13.97;;;8.30;;
27539;SDS011;15906;52.046;4.724;2023-01-28T00:21:42;11.50;;;8.70;;
27539;SDS011;15906;52.046;4.724;2023-01-28T00:24:08;11.73;;;7.50;;
27539;SDS011;15906;52.046;4.724;2023-01-28T00:26:33;13.00;;;8.00;;
27539;SDS011;15906;52.046;4.724;2023-01-28T00:29:00;16.20;;;8.77;;
27539;SDS011;15906;52.046;4.724;2023-01-28T00:31:25;15.20;;;8.50;;
27539;SDS011;15906;52.046;4.724;2023-01-28T00:33:52;17.03;;;9.17;;
27539;SDS011;15906;52.046;4.724;2023-01-28T00:36:19;14.23;;;9.00;;
27539;SDS011;15906;52.046;4.724;2023-01-28T00:38:50;13.77;;;8.13;;
27539;SDS011;15906;52.046;4.724;2023-01-28T00:41:21;15.87;;;8.63;;
27539;SDS011;15906;52.046;4.724;2023-01-28T00:43:48;12.47;;;8.20;;
27539;SDS011;15906;52.046;4.724;2023-01-28T00:46:15;16.87;;;9.70;;
27539;SDS011;15906;52.046;4.724;2023-01-28T00:48:42;13.37;;;8.33;;
27539;SDS011;15906;52.046;4.724;2023-01-28T00:51:08;18.83;;;9.00;;
27539;SDS011;15906;52.046;4.724;2023-01-28T00:53:35;12.80;;;8.17;;
27539;SDS011;15906;52.046;4.724;2023-01-28T00:56:02;12.07;;;7.87;;
27539;SDS011;15906;52.046;4.724;2023-01-28T00:58:29;15.17;;;8.83;;
27539;SDS011;15906;52.046;4.724;2023-01-28T01:00:55;13.60;;;8.40;;
27539;SDS011;15906;52.046;4.724;2023-01-28T01:03:21;13.67;;;8.47;;
27539;SDS011;15906;52.046;4.724;2023-01-28T01:05:46;14.10;;;8.40;;
27539;SDS011;15906;52.046;4.724;2023-01-28T01:08:12;12.40;;;8.07;;
27539;SDS011;15906;52.046;4.724;2023-01-28T01:10:38;13.87;;;8.63;;
27539;SDS011;15906;52.046;4.724;2023-01-28T01:13:04;14.80;;;8.83;;
27539;SDS011;15906;52.046;4.724;2023-01-28T01:15:30;14.90;;;9.00;;
27539;SDS011;15906;52.046;4.724;2023-01-28T01:17:56;13.77;;;8.07;;
27539;SDS011;15906;52.046;4.724;2023-01-28T01:20:24;14.10;;;8.60;;
27539;SDS011;15906;52.046;4.724;2023-01-28T01:22:51;16.63;;;9.00;;
27539;SDS011;15906;52.046;4.724;2023-01-28T01:25:17;14.37;;;8.07;;
27539;SDS011;15906;52.046;4.724;2023-01-28T01:27:43;14.73;;;8.17;;
27539;SDS011;15906;52.046;4.724;2023-01-28T01:30:12;15.93;;;9.53;;
27539;SDS011;15906;52.046;4.724;2023-01-28T01:32:39;15.77;;;9.00;;
27539;SDS011;15906;52.046;4.724;2023-01-28T01:35:05;12.27;;;8.23;;
27539;SDS011;15906;52.046;4.724;2023-01-28T01:37:32;14.63;;;9.30;;
27539;SDS011;15906;52.046;4.724;2023-01-28T01:39:58;15.00;;;8.70;;
27539;SDS011;15906;52.046;4.724;2023-01-28T01:42:25;15.03;;;9.07;;
27539;SDS011;15906;52.046;4.724;2023-01-28T01:44:53;14.97;;;9.03;;
27539;SDS011;15906;52.046;4.724;2023-01-28T01:47:26;14.50;;;8.67;;
27539;SDS011;15906;52.046;4.724;2023-01-28T01:50:08;13.33;;;8.70;;
27539;SDS011;15906;52.046;4.724;2023-01-28T01:52:40;13.57;;;9.10;;
27539;SDS011;15906;52.046;4.724;2023-01-28T01:55:08;15.90;;;9.37;;
27539;SDS011;15906;52.046;4.724;2023-01-28T01:57:37;14.20;;;9.23;;
27539;SDS011;15906;52.046;4.724;2023-01-28T02:00:04;14.43;;;8.60;;
27539;SDS011;15906;52.046;4.724;2023-01-28T02:02:35;14.40;;;8.33;;
27539;SDS011;15906;52.046;4.724;2023-01-28T02:05:04;14.30;;;8.87;;
27539;SDS011;15906;52.046;4.724;2023-01-28T02:07:31;13.20;;;8.87;;
27539;SDS011;15906;52.046;4.724;2023-01-28T02:09:57;13.67;;;9.13;;
27539;SDS011;15906;52.046;4.724;2023-01-28T02:12:23;14.33;;;9.07;;
27539;SDS011;15906;52.046;4.724;2023-01-28T02:17:53;16.07;;;10.00;;
27539;SDS011;15906;52.046;4.724;2023-01-28T02:20:21;14.80;;;9.53;;
27539;SDS011;15906;52.046;4.724;2023-01-28T02:23:01;16.07;;;8.93;;
27539;SDS011;15906;52.046;4.724;2023-01-28T02:28:44;14.13;;;9.17;;
27539;SDS011;15906;52.046;4.724;2023-01-28T02:34:22;14.43;;;8.30;;
27539;SDS011;15906;52.046;4.724;2023-01-28T02:39:34;13.10;;;8.73;;
27539;SDS011;15906;52.046;4.724;2023-01-28T02:42:06;12.80;;;8.07;;
27539;SDS011;15906;52.046;4.724;2023-01-28T02:44:37;12.93;;;8.07;;
27539;SDS011;15906;52.046;4.724;2023-01-28T02:47:04;11.13;;;7.57;;
27539;SDS011;15906;52.046;4.724;2023-01-28T02:49:55;13.50;;;8.43;;
27539;SDS011;15906;52.046;4.724;2023-01-28T02:55:12;13.23;;;8.13;;
27539;SDS011;15906;52.046;4.724;2023-01-28T02:57:54;14.73;;;8.60;;
27539;SDS011;15906;52.046;4.724;2023-01-28T03:00:38;12.43;;;7.73;;
27539;SDS011;15906;52.046;4.724;2023-01-28T03:05:47;14.80;;;9.00;;
27539;SDS011;15906;52.046;4.724;2023-01-28T03:08:41;12.97;;;8.13;;
27539;SDS011;15906;52.046;4.724;2023-01-28T03:11:43;11.60;;;6.40;;
27539;SDS011;15906;52.046;4.724;2023-01-28T03:14:31;9.97;;;5.80;;
27539;SDS011;15906;52.046;4.724;2023-01-28T03:17:25;10.50;;;6.13;;
27539;SDS011;15906;52.046;4.724;2023-01-28T03:20:17;8.80;;;5.90;;
27539;SDS011;15906;52.046;4.724;2023-01-28T03:23:07;8.00;;;5.70;;
27539;SDS011;15906;52.046;4.724;2023-01-28T03:25:54;7.60;;;5.07;;
27539;SDS011;15906;52.046;4.724;2023-01-28T03:28:41;8.60;;;5.60;;
27539;SDS011;15906;52.046;4.724;2023-01-28T03:31:29;8.43;;;4.97;;
27539;SDS011;15906;52.046;4.724;2023-01-28T03:34:14;6.50;;;4.73;;
27539;SDS011;15906;52.046;4.724;2023-01-28T03:36:58;7.47;;;4.60;;
27539;SDS011;15906;52.046;4.724;2023-01-28T03:39:24;10.23;;;5.60;;
27539;SDS011;15906;52.046;4.724;2023-01-28T03:42:01;8.17;;;5.50;;
27539;SDS011;15906;52.046;4.724;2023-01-28T03:44:38;8.03;;;5.40;;
27539;SDS011;15906;52.046;4.724;2023-01-28T03:47:25;8.47;;;5.33;;
27539;SDS011;15906;52.046;4.724;2023-01-28T03:49:53;7.10;;;4.90;;
27539;SDS011;15906;52.046;4.724;2023-01-28T03:52:21;8.23;;;4.67;;
27539;SDS011;15906;52.046;4.724;2023-01-28T03:54:48;7.13;;;5.20;;
27539;SDS011;15906;52.046;4.724;2023-01-28T03:57:14;8.10;;;5.17;;
27539;SDS011;15906;52.046;4.724;2023-01-28T03:59:40;6.00;;;4.30;;
27539;SDS011;15906;52.046;4.724;2023-01-28T04:02:06;5.73;;;4.43;;
27539;SDS011;15906;52.046;4.724;2023-01-28T04:04:32;6.03;;;4.30;;
27539;SDS011;15906;52.046;4.724;2023-01-28T04:06:58;7.33;;;4.43;;
27539;SDS011;15906;52.046;4.724;2023-01-28T04:09:24;6.07;;;4.37;;
27539;SDS011;15906;52.046;4.724;2023-01-28T04:11:50;5.67;;;4.23;;
27539;SDS011;15906;52.046;4.724;2023-01-28T04:14:16;5.90;;;4.53;;
27539;SDS011;15906;52.046;4.724;2023-01-28T04:16:42;6.77;;;4.93;;
27539;SDS011;15906;52.046;4.724;2023-01-28T04:19:08;8.80;;;5.13;;
27539;SDS011;15906;52.046;4.724;2023-01-28T04:21:36;6.00;;;4.40;;
27539;SDS011;15906;52.046;4.724;2023-01-28T04:24:02;6.70;;;3.97;;
27539;SDS011;15906;52.046;4.724;2023-01-28T04:26:28;8.50;;;4.87;;
27539;SDS011;15906;52.046;4.724;2023-01-28T04:28:53;8.97;;;4.83;;
27539;SDS011;15906;52.046;4.724;2023-01-28T04:31:19;6.83;;;4.73;;
27539;SDS011;15906;52.046;4.724;2023-01-28T04:33:44;6.73;;;4.50;;
27539;SDS011;15906;52.046;4.724;2023-01-28T04:36:10;7.17;;;4.93;;
27539;SDS011;15906;52.046;4.724;2023-01-28T04:38:35;6.40;;;4.27;;
27539;SDS011;15906;52.046;4.724;2023-01-28T04:41:01;8.70;;;4.60;;
27539;SDS011;15906;52.046;4.724;2023-01-28T04:43:26;6.80;;;4.37;;
27539;SDS011;15906;52.046;4.724;2023-01-28T04:45:52;9.07;;;4.60;;
27539;SDS011;15906;52.046;4.724;2023-01-28T04:48:17;7.50;;;4.40;;
27539;SDS011;15906;52.046;4.724;2023-01-28T04:50:43;6.80;;;4.60;;
27539;SDS011;15906;52.046;4.724;2023-01-28T04:53:09;5.87;;;4.57;;
27539;SDS011;15906;52.046;4.724;2023-01-28T04:55:35;7.13;;;4.70;;
27539;SDS011;15906;52.046;4.724;2023-01-28T04:58:01;5.67;;;4.57;;
27539;SDS011;15906;52.046;4.724;2023-01-28T05:00:27;10.40;;;4.83;;
27539;SDS011;15906;52.046;4.724;2023-01-28T05:02:53;8.00;;;4.77;;
27539;SDS011;15906;52.046;4.724;2023-01-28T05:05:18;6.57;;;4.83;;
27539;SDS011;15906;52.046;4.724;2023-01-28T05:07:49;4.33;;;3.50;;
27539;SDS011;15906;52.046;4.724;2023-01-28T05:10:15;5.93;;;4.17;;
27539;SDS011;15906;52.046;4.724;2023-01-28T05:12:42;8.57;;;4.57;;
27539;SDS011;15906;52.046;4.724;2023-01-28T05:15:09;7.33;;;4.53;;
27539;SDS011;15906;52.046;4.724;2023-01-28T05:17:34;7.10;;;4.17;;
27539;SDS011;15906;52.046;4.724;2023-01-28T05:20:00;8.10;;;4.17;;
27539;SDS011;15906;52.046;4.724;2023-01-28T05:22:25;6.37;;;4.03;;
27539;SDS011;15906;52.046;4.724;2023-01-28T05:24:51;6.30;;;4.40;;
27539;SDS011;15906;52.046;4.724;2023-01-28T05:27:17;7.73;;;4.27;;
27539;SDS011;15906;52.046;4.724;2023-01-28T05:29:42;5.50;;;4.10;;
27539;SDS011;15906;52.046;4.724;2023-01-28T05:32:08;6.13;;;4.40;;
27539;SDS011;15906;52.046;4.724;2023-01-28T05:34:33;7.53;;;4.90;;
27539;SDS011;15906;52.046;4.724;2023-01-28T05:36:59;7.53;;;4.87;;
27539;SDS011;15906;52.046;4.724;2023-01-28T05:39:24;9.47;;;5.57;;
27539;SDS011;15906;52.046;4.724;2023-01-28T05:41:50;7.53;;;4.87;;
27539;SDS011;15906;52.046;4.724;2023-01-28T05:44:15;8.33;;;5.10;;
27539;SDS011;15906;52.046;4.724;2023-01-28T05:46:41;6.73;;;4.77;;
27539;SDS011;15906;52.046;4.724;2023-01-28T05:49:09;7.50;;;4.67;;
27539;SDS011;15906;52.046;4.724;2023-01-28T05:51:37;7.37;;;5.07;;
27539;SDS011;15906;52.046;4.724;2023-01-28T05:54:03;9.10;;;5.53;;
27539;SDS011;15906;52.046;4.724;2023-01-28T05:56:29;6.93;;;4.40;;
27539;SDS011;15906;52.046;4.724;2023-01-28T05:58:55;8.67;;;4.97;;
27539;SDS011;15906;52.046;4.724;2023-01-28T06:01:20;10.27;;;5.07;;
27539;SDS011;15906;52.046;4.724;2023-01-28T06:03:46;6.90;;;5.10;;
27539;SDS011;15906;52.046;4.724;2023-01-28T06:06:11;6.70;;;4.43;;
27539;SDS011;15906;52.046;4.724;2023-01-28T06:08:37;9.03;;;5.10;;
27539;SDS011;15906;52.046;4.724;2023-01-28T06:11:03;7.00;;;5.00;;
27539;SDS011;15906;52.046;4.724;2023-01-28T06:13:28;7.93;;;4.80;;
27539;SDS011;15906;52.046;4.724;2023-01-28T06:15:54;8.67;;;5.17;;
27539;SDS011;15906;52.046;4.724;2023-01-28T06:18:19;8.97;;;5.30;;
27539;SDS011;15906;52.046;4.724;2023-01-28T06:20:45;7.57;;;5.10;;
27539;SDS011;15906;52.046;4.724;2023-01-28T06:23:13;9.77;;;5.00;;
27539;SDS011;15906;52.046;4.724;2023-01-28T06:25:39;7.27;;;4.83;;
27539;SDS011;15906;52.046;4.724;2023-01-28T06:28:05;9.20;;;4.80;;
27539;SDS011;15906;52.046;4.724;2023-01-28T06:30:30;7.53;;;5.10;;
27539;SDS011;15906;52.046;4.724;2023-01-28T06:32:56;6.40;;;4.63;;
27539;SDS011;15906;52.046;4.724;2023-01-28T06:35:21;6.20;;;4.53;;
27539;SDS011;15906;52.046;4.724;2023-01-28T06:37:47;7.83;;;5.20;;
27539;SDS011;15906;52.046;4.724;2023-01-28T06:40:13;5.93;;;4.53;;
27539;SDS011;15906;52.046;4.724;2023-01-28T06:42:39;7.60;;;5.03;;
27539;SDS011;15906;52.046;4.724;2023-01-28T06:45:04;10.00;;;5.00;;
27539;SDS011;15906;52.046;4.724;2023-01-28T06:47:30;8.67;;;5.10;;
27539;SDS011;15906;52.046;4.724;2023-01-28T06:49:55;7.63;;;5.00;;
27539;SDS011;15906;52.046;4.724;2023-01-28T06:52:21;7.07;;;4.93;;
27539;SDS011;15906;52.046;4.724;2023-01-28T06:54:46;7.17;;;5.00;;
27539;SDS011;15906;52.046;4.724;2023-01-28T06:57:12;7.70;;;5.03;;
27539;SDS011;15906;52.046;4.724;2023-01-28T06:59:37;8.37;;;5.57;;
27539;SDS011;15906;52.046;4.724;2023-01-28T07:02:03;6.60;;;4.67;;
27539;SDS011;15906;52.046;4.724;2023-01-28T07:04:28;7.60;;;5.13;;
27539;SDS011;15906;52.046;4.724;2023-01-28T07:06:55;6.73;;;4.70;;
27539;SDS011;15906;52.046;4.724;2023-01-28T07:09:21;10.03;;;4.97;;
27539;SDS011;15906;52.046;4.724;2023-01-28T07:11:46;8.93;;;5.30;;
27539;SDS011;15906;52.046;4.724;2023-01-28T07:14:12;7.87;;;5.77;;
27539;SDS011;15906;52.046;4.724;2023-01-28T07:16:37;9.50;;;5.57;;
27539;SDS011;15906;52.046;4.724;2023-01-28T07:19:03;8.23;;;5.30;;
27539;SDS011;15906;52.046;4.724;2023-01-28T07:21:28;8.63;;;5.23;;
27539;SDS011;15906;52.046;4.724;2023-01-28T07:23:54;8.23;;;4.97;;
27539;SDS011;15906;52.046;4.724;2023-01-28T07:26:20;7.30;;;5.20;;
27539;SDS011;15906;52.046;4.724;2023-01-28T07:28:45;7.20;;;4.97;;
27539;SDS011;15906;52.046;4.724;2023-01-28T07:31:11;9.70;;;4.80;;
27539;SDS011;15906;52.046;4.724;2023-01-28T07:33:36;7.53;;;5.20;;
27539;SDS011;15906;52.046;4.724;2023-01-28T07:36:02;7.90;;;5.10;;
27539;SDS011;15906;52.046;4.724;2023-01-28T07:38:28;8.77;;;5.43;;
27539;SDS011;15906;52.046;4.724;2023-01-28T07:40:53;9.53;;;5.50;;
27539;SDS011;15906;52.046;4.724;2023-01-28T07:43:19;9.90;;;5.50;;
27539;SDS011;15906;52.046;4.724;2023-01-28T07:45:44;14.13;;;7.23;;
27539;SDS011;15906;52.046;4.724;2023-01-28T07:48:10;10.57;;;6.23;;
27539;SDS011;15906;52.046;4.724;2023-01-28T07:50:37;7.63;;;5.40;;
27539;SDS011;15906;52.046;4.724;2023-01-28T07:53:04;8.13;;;5.97;;
27539;SDS011;15906;52.046;4.724;2023-01-28T07:55:32;9.73;;;5.77;;
27539;SDS011;15906;52.046;4.724;2023-01-28T07:58:00;10.00;;;5.50;;
27539;SDS011;15906;52.046;4.724;2023-01-28T08:00:27;8.93;;;6.00;;
27539;SDS011;15906;52.046;4.724;2023-01-28T08:02:55;8.77;;;5.87;;
27539;SDS011;15906;52.046;4.724;2023-01-28T08:05:25;13.33;;;6.27;;
27539;SDS011;15906;52.046;4.724;2023-01-28T08:08:00;8.53;;;5.40;;
27539;SDS011;15906;52.046;4.724;2023-01-28T08:10:27;9.70;;;5.50;;
27539;SDS011;15906;52.046;4.724;2023-01-28T08:12:53;9.83;;;5.57;;
27539;SDS011;15906;52.046;4.724;2023-01-28T08:15:20;9.30;;;6.03;;
27539;SDS011;15906;52.046;4.724;2023-01-28T08:17:46;12.13;;;6.60;;
27539;SDS011;15906;52.046;4.724;2023-01-28T08:20:11;12.17;;;7.60;;
27539;SDS011;15906;52.046;4.724;2023-01-28T08:22:38;10.87;;;6.13;;
27539;SDS011;15906;52.046;4.724;2023-01-28T08:25:03;10.33;;;6.43;;
27539;SDS011;15906;52.046;4.724;2023-01-28T08:27:29;9.93;;;6.27;;
27539;SDS011;15906;52.046;4.724;2023-01-28T08:29:55;9.17;;;6.13;;
27539;SDS011;15906;52.046;4.724;2023-01-28T08:32:20;10.30;;;5.93;;
27539;SDS011;15906;52.046;4.724;2023-01-28T08:34:46;9.27;;;6.23;;
27539;SDS011;15906;52.046;4.724;2023-01-28T08:37:11;11.33;;;6.50;;
27539;SDS011;15906;52.046;4.724;2023-01-28T08:39:37;18.43;;;7.10;;
27539;SDS011;15906;52.046;4.724;2023-01-28T08:42:03;10.43;;;6.83;;
27539;SDS011;15906;52.046;4.724;2023-01-28T08:44:30;13.77;;;6.03;;
27539;SDS011;15906;52.046;4.724;2023-01-28T08:46:55;9.47;;;6.00;;
27539;SDS011;15906;52.046;4.724;2023-01-28T08:49:21;11.00;;;6.57;;
27539;SDS011;15906;52.046;4.724;2023-01-28T08:51:46;12.97;;;6.87;;
27539;SDS011;15906;52.046;4.724;2023-01-28T08:54:12;8.50;;;5.80;;
27539;SDS011;15906;52.046;4.724;2023-01-28T08:56:38;13.30;;;6.90;;
27539;SDS011;15906;52.046;4.724;2023-01-28T08:59:06;10.90;;;6.50;;
27539;SDS011;15906;52.046;4.724;2023-01-28T09:01:32;9.97;;;6.07;;
27539;SDS011;15906;52.046;4.724;2023-01-28T09:03:58;10.13;;;6.33;;
27539;SDS011;15906;52.046;4.724;2023-01-28T09:06:23;8.73;;;5.93;;
27539;SDS011;15906;52.046;4.724;2023-01-28T09:08:49;10.13;;;6.83;;
27539;SDS011;15906;52.046;4.724;2023-01-28T09:11:14;13.70;;;7.13;;
27539;SDS011;15906;52.046;4.724;2023-01-28T09:13:40;11.27;;;7.37;;
27539;SDS011;15906;52.046;4.724;2023-01-28T09:16:06;12.47;;;6.83;;
27539;SDS011;15906;52.046;4.724;2023-01-28T09:18:32;13.23;;;6.47;;
27539;SDS011;15906;52.046;4.724;2023-01-28T09:20:57;11.77;;;7.30;;
27539;SDS011;15906;52.046;4.724;2023-01-28T09:23:23;9.87;;;6.77;;
27539;SDS011;15906;52.046;4.724;2023-01-28T09:25:48;10.63;;;6.67;;
27539;SDS011;15906;52.046;4.724;2023-01-28T09:28:14;10.10;;;6.23;;
27539;SDS011;15906;52.046;4.724;2023-01-28T09:30:39;10.23;;;6.20;;
27539;SDS011;15906;52.046;4.724;2023-01-28T09:33:05;9.03;;;6.37;;
27539;SDS011;15906;52.046;4.724;2023-01-28T09:35:31;11.73;;;6.63;;
27539;SDS011;15906;52.046;4.724;2023-01-28T09:37:57;9.27;;;6.60;;
27539;SDS011;15906;52.046;4.724;2023-01-28T09:40:44;10.73;;;6.93;;
27539;SDS011;15906;52.046;4.724;2023-01-28T09:43:29;10.77;;;6.90;;
27539;SDS011;15906;52.046;4.724;2023-01-28T09:46:11;11.37;;;6.83;;
27539;SDS011;15906;52.046;4.724;2023-01-28T09:48:43;11.20;;;7.10;;
27539;SDS011;15906;52.046;4.724;2023-01-28T09:51:31;11.30;;;6.80;;
27539;SDS011;15906;52.046;4.724;2023-01-28T09:54:48;11.10;;;6.93;;
27539;SDS011;15906;52.046;4.724;2023-01-28T09:57:00;9.70;;;6.47;;
27539;SDS011;15906;52.046;4.724;2023-01-28T09:59:30;12.43;;;7.37;;
27539;SDS011;15906;52.046;4.724;2023-01-28T10:02:22;10.77;;;7.20;;
27539;SDS011;15906;52.046;4.724;2023-01-28T10:07:40;10.30;;;7.00;;
27539;SDS011;15906;52.046;4.724;2023-01-28T10:10:13;11.23;;;6.60;;
27539;SDS011;15906;52.046;4.724;2023-01-28T10:12:54;12.13;;;7.20;;
27539;SDS011;15906;52.046;4.724;2023-01-28T10:18:03;9.77;;;6.23;;
27539;SDS011;15906;52.046;4.724;2023-01-28T10:20:36;10.10;;;6.07;;
27539;SDS011;15906;52.046;4.724;2023-01-28T10:25:46;8.63;;;5.93;;
27539;SDS011;15906;52.046;4.724;2023-01-28T10:28:16;8.82;;;5.63;;
27539;SDS011;15906;52.046;4.724;2023-01-28T10:30:48;9.57;;;6.15;;
27539;SDS011;15906;52.046;4.724;2023-01-28T10:33:18;10.23;;;6.35;;
27539;SDS011;15906;52.046;4.724;2023-01-28T10:35:54;7.88;;;5.40;;
27539;SDS011;15906;52.046;4.724;2023-01-28T10:38:22;13.40;;;6.30;;
27539;SDS011;15906;52.046;4.724;2023-01-28T10:40:49;7.03;;;5.40;;
27539;SDS011;15906;52.046;4.724;2023-01-28T10:43:16;8.75;;;6.15;;
27539;SDS011;15906;52.046;4.724;2023-01-28T10:48:28;7.57;;;5.63;;
27539;SDS011;15906;52.046;4.724;2023-01-28T10:50:57;8.02;;;5.05;;
27539;SDS011;15906;52.046;4.724;2023-01-28T10:56:01;8.93;;;5.80;;
27539;SDS011;15906;52.046;4.724;2023-01-28T10:58:30;9.32;;;6.35;;
27539;SDS011;15906;52.046;4.724;2023-01-28T11:00:59;8.77;;;6.00;;
27539;SDS011;15906;52.046;4.724;2023-01-28T11:03:27;7.60;;;5.65;;
27539;SDS011;15906;52.046;4.724;2023-01-28T11:05:55;9.98;;;5.13;;
27539;SDS011;15906;52.046;4.724;2023-01-28T11:08:22;7.82;;;5.32;;
27539;SDS011;15906;52.046;4.724;2023-01-28T11:10:51;8.25;;;5.63;;
27539;SDS011;15906;52.046;4.724;2023-01-28T11:13:18;7.25;;;5.13;;
27539;SDS011;15906;52.046;4.724;2023-01-28T11:16:02;10.32;;;4.85;;
27539;SDS011;15906;52.046;4.724;2023-01-28T11:18:34;7.95;;;4.70;;
27539;SDS011;15906;52.046;4.724;2023-01-28T11:21:04;7.47;;;4.82;;
27539;SDS011;15906;52.046;4.724;2023-01-28T11:23:40;8.50;;;4.70;;
27539;SDS011;15906;52.046;4.724;2023-01-28T11:26:15;6.35;;;4.13;;
27539;SDS011;15906;52.046;4.724;2023-01-28T11:28:43;6.70;;;4.30;;
27539;SDS011;15906;52.046;4.724;2023-01-28T11:31:10;5.30;;;4.07;;
27539;SDS011;15906;52.046;4.724;2023-01-28T11:33:42;7.72;;;4.72;;
27539;SDS011;15906;52.046;4.724;2023-01-28T11:36:23;7.85;;;4.32;;
27539;SDS011;15906;52.046;4.724;2023-01-28T11:38:55;9.52;;;4.32;;
27539;SDS011;15906;52.046;4.724;2023-01-28T11:43:57;9.93;;;4.25;;
27539;SDS011;15906;52.046;4.724;2023-01-28T11:46:35;5.50;;;4.00;;
27539;SDS011;15906;52.046;4.724;2023-01-28T11:52:18;8.93;;;4.80;;
27539;SDS011;15906;52.046;4.724;2023-01-28T11:55:17;5.15;;;3.72;;
27539;SDS011;15906;52.046;4.724;2023-01-28T11:58:12;4.97;;;3.70;;
27539;SDS011;15906;52.046;4.724;2023-01-28T12:00:49;5.60;;;3.47;;
27539;SDS011;15906;52.046;4.724;2023-01-28T12:11:53;6.75;;;4.47;;
27539;SDS011;15906;52.046;4.724;2023-01-28T12:17:18;8.32;;;4.57;;
27539;SDS011;15906;52.046;4.724;2023-01-28T12:19:58;5.90;;;4.47;;
27539;SDS011;15906;52.046;4.724;2023-01-28T12:25:44;5.85;;;4.05;;
27539;SDS011;15906;52.046;4.724;2023-01-28T12:34:26;6.30;;;3.83;;
27539;SDS011;15906;52.046;4.724;2023-01-28T12:43:08;11.80;;;4.47;;
27539;SDS011;15906;52.046;4.724;2023-01-28T12:45:54;5.72;;;4.47;;
27539;SDS011;15906;52.046;4.724;2023-01-28T12:48:27;8.00;;;3.90;;
27539;SDS011;15906;52.046;4.724;2023-01-28T12:51:06;7.13;;;4.50;;
27539;SDS011;15906;52.046;4.724;2023-01-28T12:53:41;6.28;;;4.70;;
27539;SDS011;15906;52.046;4.724;2023-01-28T12:56:31;5.88;;;3.92;;
27539;SDS011;15906;52.046;4.724;2023-01-28T12:59:05;13.07;;;4.50;;
27539;SDS011;15906;52.046;4.724;2023-01-28T13:01:41;5.82;;;4.22;;
27539;SDS011;15906;52.046;4.724;2023-01-28T13:04:35;6.90;;;3.95;;
27539;SDS011;15906;52.046;4.724;2023-01-28T13:07:06;6.47;;;3.83;;
27539;SDS011;15906;52.046;4.724;2023-01-28T13:09:42;5.95;;;4.47;;
27539;SDS011;15906;52.046;4.724;2023-01-28T13:12:14;7.47;;;4.10;;
27539;SDS011;15906;52.046;4.724;2023-01-28T13:14:41;8.55;;;4.88;;
27539;SDS011;15906;52.046;4.724;2023-01-28T13:17:08;10.20;;;4.13;;
27539;SDS011;15906;52.046;4.724;2023-01-28T13:19:38;8.07;;;3.80;;
27539;SDS011;15906;52.046;4.724;2023-01-28T13:22:24;6.93;;;4.00;;
27539;SDS011;15906;52.046;4.724;2023-01-28T13:24:51;6.38;;;4.38;;
27539;SDS011;15906;52.046;4.724;2023-01-28T13:27:25;7.47;;;4.05;;
27539;SDS011;15906;52.046;4.724;2023-01-28T13:30:03;5.28;;;3.78;;
27539;SDS011;15906;52.046;4.724;2023-01-28T13:32:53;8.65;;;4.05;;
27539;SDS011;15906;52.046;4.724;2023-01-28T13:38:04;7.13;;;3.75;;
27539;SDS011;15906;52.046;4.724;2023-01-28T13:40:41;7.10;;;4.70;;
27539;SDS011;15906;52.046;4.724;2023-01-28T13:45:58;10.98;;;5.50;;
27539;SDS011;15906;52.046;4.724;2023-01-28T13:48:30;10.00;;;5.55;;
27539;SDS011;15906;52.046;4.724;2023-01-28T13:50:58;8.30;;;4.63;;
27539;SDS011;15906;52.046;4.724;2023-01-28T13:53:35;6.60;;;4.53;;
27539;SDS011;15906;52.046;4.724;2023-01-28T13:56:14;7.05;;;3.97;;
27539;SDS011;15906;52.046;4.724;2023-01-28T14:01:37;10.82;;;5.20;;
27539;SDS011;15906;52.046;4.724;2023-01-28T14:09:26;7.32;;;3.90;;
27539;SDS011;15906;52.046;4.724;2023-01-28T14:15:17;10.13;;;4.22;;
27539;SDS011;15906;52.046;4.724;2023-01-28T14:17:47;7.43;;;4.13;;
27539;SDS011;15906;52.046;4.724;2023-01-28T14:20:26;11.60;;;3.75;;
27539;SDS011;15906;52.046;4.724;2023-01-28T14:23:05;7.05;;;3.75;;
27539;SDS011;15906;52.046;4.724;2023-01-28T14:31:36;5.95;;;3.97;;
27539;SDS011;15906;52.046;4.724;2023-01-28T14:36:50;7.78;;;4.60;;
27539;SDS011;15906;52.046;4.724;2023-01-28T14:39:26;10.30;;;4.43;;
27539;SDS011;15906;52.046;4.724;2023-01-28T14:41:55;7.38;;;4.78;;
27539;SDS011;15906;52.046;4.724;2023-01-28T14:44:39;8.15;;;4.68;;
27539;SDS011;15906;52.046;4.724;2023-01-28T14:52:47;7.50;;;4.70;;
27539;SDS011;15906;52.046;4.724;2023-01-28T14:55:34;8.80;;;4.65;;
27539;SDS011;15906;52.046;4.724;2023-01-28T14:58:40;8.98;;;5.03;;
27539;SDS011;15906;52.046;4.724;2023-01-28T15:01:19;25.77;;;13.13;;
27539;SDS011;15906;52.046;4.724;2023-01-28T15:03:50;13.13;;;6.32;;
27539;SDS011;15906;52.046;4.724;2023-01-28T15:06:17;9.85;;;5.97;;
27539;SDS011;15906;52.046;4.724;2023-01-28T15:08:48;11.38;;;5.53;;
27539;SDS011;15906;52.046;4.724;2023-01-28T15:11:16;9.70;;;5.57;;
27539;SDS011;15906;52.046;4.724;2023-01-28T15:13:46;13.00;;;5.40;;
27539;SDS011;15906;52.046;4.724;2023-01-28T15:16:19;14.45;;;7.18;;
27539;SDS011;15906;52.046;4.724;2023-01-28T15:18:48;11.73;;;5.63;;
27539;SDS011;15906;52.046;4.724;2023-01-28T15:21:20;10.30;;;5.93;;
27539;SDS011;15906;52.046;4.724;2023-01-28T15:23:51;8.20;;;5.38;;
27539;SDS011;15906;52.046;4.724;2023-01-28T15:26:25;9.35;;;5.38;;
27539;SDS011;15906;52.046;4.724;2023-01-28T15:28:53;7.13;;;4.78;;
27539;SDS011;15906;52.046;4.724;2023-01-28T15:31:26;8.88;;;4.85;;
27539;SDS011;15906;52.046;4.724;2023-01-28T15:34:16;9.52;;;4.97;;
27539;SDS011;15906;52.046;4.724;2023-01-28T15:36:41;8.25;;;4.63;;
27539;SDS011;15906;52.046;4.724;2023-01-28T15:39:14;11.82;;;4.75;;
27539;SDS011;15906;52.046;4.724;2023-01-28T15:41:42;10.65;;;5.68;;
27539;SDS011;15906;52.046;4.724;2023-01-28T15:44:14;10.00;;;5.97;;
27539;SDS011;15906;52.046;4.724;2023-01-28T15:46:53;8.23;;;4.93;;
27539;SDS011;15906;52.046;4.724;2023-01-28T15:49:26;9.38;;;6.15;;
27539;SDS011;15906;52.046;4.724;2023-01-28T15:51:58;12.07;;;6.53;;
27539;SDS011;15906;52.046;4.724;2023-01-28T15:54:24;9.88;;;5.80;;
27539;SDS011;15906;52.046;4.724;2023-01-28T15:56:50;12.30;;;5.90;;
27539;SDS011;15906;52.046;4.724;2023-01-28T15:59:17;12.48;;;6.07;;
27539;SDS011;15906;52.046;4.724;2023-01-28T16:01:47;13.18;;;6.93;;
27539;SDS011;15906;52.046;4.724;2023-01-28T16:04:23;10.32;;;6.45;;
27539;SDS011;15906;52.046;4.724;2023-01-28T16:06:51;9.07;;;6.40;;
27539;SDS011;15906;52.046;4.724;2023-01-28T16:09:23;9.88;;;6.40;;
27539;SDS011;15906;52.046;4.724;2023-01-28T16:11:51;10.77;;;6.15;;
27539;SDS011;15906;52.046;4.724;2023-01-28T16:14:22;10.73;;;7.15;;
27539;SDS011;15906;52.046;4.724;2023-01-28T16:16:50;10.70;;;6.40;;
27539;SDS011;15906;52.046;4.724;2023-01-28T16:19:23;11.52;;;5.95;;
27539;SDS011;15906;52.046;4.724;2023-01-28T16:22:00;12.35;;;5.75;;
27539;SDS011;15906;52.046;4.724;2023-01-28T16:24:27;25.80;;;5.83;;
27539;SDS011;15906;52.046;4.724;2023-01-28T16:26:55;13.95;;;6.15;;
27539;SDS011;15906;52.046;4.724;2023-01-28T16:29:24;12.05;;;6.80;;
27539;SDS011;15906;52.046;4.724;2023-01-28T16:31:50;15.93;;;7.40;;
27539;SDS011;15906;52.046;4.724;2023-01-28T16:34:15;15.27;;;7.83;;
27539;SDS011;15906;52.046;4.724;2023-01-28T16:36:41;12.43;;;7.83;;